Archival Weather

Dewar Lakes

Dewar Lakes, Canada (CWUW)

Report from: Friday, May 26, 2023 11:00 AM EDT
Current time: Monday, July 22, 2024 6:25 AM EDT

Current weather – Weather history – Daily summaries
Weather forecast

Present weatherSM
Temperature-14.0°C (6.8°F)
Wind chill-25.9°C (-14.7°F)
Dew point-16.0°C (3.2°F)
Winds 21 kts (10.8 m/s, 24.2 mph) West (280°)
Visibility0 ft. (0 m)
Altimeter29.67 in.Hg (1005 mB)
Relative humidity85 %
Density altitude-3,333 ft. (-1,016 m)
Remarks Fully automated report
Flight conditions Low Instrument Meteorological Conditions
Raw dataCWUW 261500Z AUTO 28021KT ////SM ////// M14/M16 A2967
An error has occurred. This application may no longer respond until reloaded. Reload 🗙